createdAt,value
2023-04-27T00:01:17.379Z,6.50
2023-04-27T00:03:45.942Z,6.60
2023-04-27T00:06:14.346Z,6.50
2023-04-27T00:08:41.665Z,6.60
2023-04-27T00:11:10.957Z,6.50
2023-04-27T00:13:37.595Z,6.50
2023-04-27T00:16:08.994Z,6.60
2023-04-27T00:18:38.020Z,6.50
2023-04-27T00:21:07.027Z,6.50
2023-04-27T00:23:34.215Z,6.50
2023-04-27T00:26:00.866Z,6.50
2023-04-27T00:28:27.546Z,6.50
2023-04-27T00:30:54.247Z,6.50
2023-04-27T00:33:21.265Z,6.40
2023-04-27T00:35:48.072Z,6.40
2023-04-27T00:38:14.809Z,6.40
2023-04-27T00:40:41.605Z,6.40
2023-04-27T00:43:08.271Z,6.40
2023-04-27T00:45:42.978Z,6.40
2023-04-27T00:48:11.363Z,6.40
2023-04-27T00:50:38.308Z,6.40
2023-04-27T00:53:06.049Z,6.40
2023-04-27T00:55:32.762Z,6.40
2023-04-27T00:58:00.531Z,6.40
2023-04-27T01:00:28.747Z,6.40
2023-04-27T01:02:56.182Z,6.30
2023-04-27T01:05:27.055Z,6.30
2023-04-27T01:07:57.548Z,6.20
2023-04-27T01:10:27.889Z,6.20
2023-04-27T01:12:56.755Z,6.20
2023-04-27T01:15:23.585Z,6.20
2023-04-27T01:17:58.547Z,6.20
2023-04-27T01:20:25.601Z,6.10
2023-04-27T01:22:53.591Z,6.10
2023-04-27T01:25:20.387Z,6.10
2023-04-27T01:27:47.129Z,6.10
2023-04-27T01:30:13.976Z,6.10
2023-04-27T01:32:40.693Z,6.10
2023-04-27T01:35:07.845Z,6.10
2023-04-27T01:37:35.340Z,6.00
2023-04-27T01:40:02.141Z,6.00
2023-04-27T01:42:29.032Z,6.00
2023-04-27T01:44:55.657Z,6.10
2023-04-27T01:47:22.286Z,6.10
2023-04-27T01:49:50.507Z,6.10
2023-04-27T01:52:18.754Z,6.10
2023-04-27T01:54:47.917Z,6.20
2023-04-27T01:57:18.284Z,6.10
2023-04-27T01:59:45.393Z,6.10
2023-04-27T02:02:12.063Z,6.00
2023-04-27T02:04:39.191Z,6.10
2023-04-27T02:07:06.027Z,6.10
2023-04-27T02:09:32.704Z,6.10
2023-04-27T02:11:59.366Z,6.00
2023-04-27T02:14:26.083Z,6.00
2023-04-27T02:16:52.817Z,6.00
2023-04-27T02:19:19.548Z,5.90
2023-04-27T02:21:46.233Z,5.90
2023-04-27T02:24:12.880Z,5.90
2023-04-27T02:26:39.617Z,5.90
2023-04-27T02:29:06.313Z,5.90
2023-04-27T02:31:33.793Z,5.90
2023-04-27T02:34:01.742Z,5.90
2023-04-27T02:36:28.431Z,5.90
2023-04-27T02:38:56.829Z,5.80
2023-04-27T02:41:30.031Z,5.80
2023-04-27T02:43:56.714Z,5.80
2023-04-27T02:46:23.741Z,5.80
2023-04-27T02:48:50.454Z,5.70
2023-04-27T02:51:17.090Z,5.70
2023-04-27T02:53:43.801Z,5.80
2023-04-27T02:56:10.500Z,5.80
2023-04-27T02:58:37.277Z,5.80
2023-04-27T03:01:04.354Z,5.80
2023-04-27T03:03:31.284Z,5.80
2023-04-27T03:05:58.076Z,5.70
2023-04-27T03:08:24.807Z,5.70
2023-04-27T03:10:51.506Z,5.70
2023-04-27T03:13:20.245Z,5.70
2023-04-27T03:15:49.294Z,5.70
2023-04-27T03:18:20.208Z,5.70
2023-04-27T03:20:47.004Z,5.60
2023-04-27T03:23:13.662Z,5.60
2023-04-27T03:25:40.378Z,5.60
2023-04-27T03:28:07.105Z,5.60
2023-04-27T03:30:33.806Z,5.60
2023-04-27T03:33:00.588Z,5.60
2023-04-27T03:35:27.310Z,5.60
2023-04-27T03:37:53.955Z,5.60
2023-04-27T03:40:20.694Z,5.60
2023-04-27T03:42:48.382Z,5.60
2023-04-27T03:45:16.430Z,5.70
2023-04-27T03:47:43.703Z,5.60
2023-04-27T03:50:11.830Z,5.60
2023-04-27T03:52:38.474Z,5.60
2023-04-27T03:55:06.921Z,5.60
2023-04-27T03:57:37.244Z,5.70
2023-04-27T04:00:06.404Z,5.60
2023-04-27T04:02:34.421Z,5.60
2023-04-27T04:05:01.300Z,5.60
2023-04-27T04:07:28.114Z,5.70
2023-04-27T04:09:54.961Z,5.60
2023-04-27T04:12:21.637Z,5.70
2023-04-27T04:14:48.306Z,5.70
2023-04-27T04:17:15.212Z,5.60
2023-04-27T04:19:41.920Z,5.60
2023-04-27T04:22:08.695Z,5.60
2023-04-27T04:24:35.398Z,5.60
2023-04-27T04:27:02.284Z,5.70
2023-04-27T04:29:28.991Z,5.70
2023-04-27T04:31:56.080Z,5.70
2023-04-27T04:34:23.355Z,5.70
2023-04-27T04:36:51.022Z,5.70
2023-04-27T04:39:19.763Z,5.60
2023-04-27T04:41:46.774Z,5.60
2023-04-27T04:44:13.474Z,5.70
2023-04-27T04:46:40.210Z,5.70
2023-04-27T04:49:06.950Z,5.70
2023-04-27T04:51:33.798Z,5.80
2023-04-27T04:54:01.950Z,5.90
2023-04-27T04:56:28.976Z,5.80
2023-04-27T04:58:55.702Z,5.80
2023-04-27T05:01:24.637Z,5.80
2023-04-27T05:03:51.528Z,5.80
2023-04-27T05:06:19.844Z,5.90
2023-04-27T05:08:46.836Z,5.90
2023-04-27T05:11:14.625Z,5.90
2023-04-27T05:13:42.793Z,6.00
2023-04-27T05:16:10.849Z,6.00
2023-04-27T05:18:38.956Z,6.00
2023-04-27T05:21:05.729Z,6.00
2023-04-27T05:23:32.474Z,6.00
2023-04-27T05:25:59.194Z,6.10
2023-04-27T05:28:25.978Z,6.00
2023-04-27T05:30:52.699Z,6.10
2023-04-27T05:33:20.921Z,6.00
2023-04-27T05:35:49.246Z,6.00
2023-04-27T05:38:15.988Z,6.00
2023-04-27T05:40:44.111Z,6.20
2023-04-27T05:43:12.285Z,6.20
2023-04-27T05:45:40.153Z,6.20
2023-04-27T05:48:07.254Z,6.20
2023-04-27T05:50:34.023Z,6.20
2023-04-27T05:53:00.834Z,6.30
2023-04-27T05:55:27.657Z,6.30
2023-04-27T05:58:04.596Z,6.20
2023-04-27T06:00:34.836Z,6.20
2023-04-27T06:03:02.072Z,6.20
2023-04-27T06:05:29.081Z,6.30
2023-04-27T06:07:55.887Z,6.40
2023-04-27T06:10:22.911Z,6.40
2023-04-27T06:12:49.797Z,6.30
2023-04-27T06:15:17.902Z,6.20
2023-04-27T06:17:44.679Z,6.20
2023-04-27T06:20:12.022Z,6.00
2023-04-27T06:22:39.952Z,6.00
2023-04-27T06:25:07.437Z,6.00
2023-04-27T06:27:35.547Z,6.00
2023-04-27T06:30:02.261Z,6.10
2023-04-27T06:32:29.589Z,6.00
2023-04-27T06:34:56.389Z,6.00
2023-04-27T06:37:23.075Z,6.00
2023-04-27T06:39:49.888Z,6.00
2023-04-27T06:42:16.673Z,6.00
2023-04-27T06:44:43.659Z,6.00
2023-04-27T06:47:10.442Z,6.00
2023-04-27T06:49:38.846Z,5.90
2023-04-27T06:52:05.592Z,5.90
2023-04-27T06:54:33.361Z,6.00
2023-04-27T06:57:00.072Z,6.00
2023-04-27T06:59:27.824Z,6.10
2023-04-27T07:01:55.669Z,6.20
2023-04-27T07:04:22.941Z,6.20
2023-04-27T07:06:50.053Z,6.30
2023-04-27T07:09:26.926Z,6.40
2023-04-27T07:11:54.335Z,6.50
2023-04-27T07:14:21.074Z,6.40
2023-04-27T07:16:47.834Z,6.40
2023-04-27T07:19:14.738Z,6.50
2023-04-27T07:21:41.800Z,6.50
2023-04-27T07:24:08.631Z,6.50
2023-04-27T07:26:35.352Z,6.60
2023-04-27T07:29:08.283Z,6.60
2023-04-27T07:31:41.503Z,6.70
2023-04-27T07:34:08.513Z,6.60
2023-04-27T07:36:35.242Z,6.70
2023-04-27T07:39:01.931Z,6.80
2023-04-27T07:41:28.947Z,6.80
2023-04-27T07:43:56.956Z,6.90
2023-04-27T07:46:25.799Z,7.00
2023-04-27T07:48:52.567Z,7.20
2023-04-27T07:51:19.263Z,7.40
2023-04-27T07:53:47.701Z,7.60
2023-04-27T07:56:14.584Z,7.70
2023-04-27T07:58:41.318Z,7.70
2023-04-27T08:01:08.082Z,7.70
2023-04-27T08:03:35.211Z,7.70
2023-04-27T08:06:02.405Z,7.70
2023-04-27T08:08:29.327Z,7.60
2023-04-27T08:10:56.057Z,7.70
2023-04-27T08:13:23.743Z,7.70
2023-04-27T08:15:52.504Z,7.70
2023-04-27T08:18:19.196Z,7.70
2023-04-27T08:20:47.464Z,7.80
2023-04-27T08:23:14.279Z,7.90
2023-04-27T08:25:50.728Z,8.00
2023-04-27T08:28:18.980Z,7.90
2023-04-27T08:30:48.977Z,7.90
2023-04-27T08:33:16.025Z,8.00
2023-04-27T08:35:43.111Z,7.90
2023-04-27T08:38:09.885Z,7.80
2023-04-27T08:40:36.607Z,7.90
2023-04-27T08:43:03.384Z,8.00
2023-04-27T08:45:30.129Z,8.00
2023-04-27T08:47:56.987Z,7.90
2023-04-27T08:50:26.094Z,8.00
2023-04-27T08:52:53.051Z,8.00
2023-04-27T08:55:20.217Z,8.00
2023-04-27T08:57:57.853Z,8.00
2023-04-27T09:00:38.195Z,8.10
2023-04-27T09:03:05.031Z,8.20
2023-04-27T09:05:31.866Z,8.20
2023-04-27T09:08:02.720Z,8.20
2023-04-27T09:10:29.713Z,8.20
2023-04-27T09:13:00.922Z,8.10
2023-04-27T09:15:28.342Z,8.10
2023-04-27T09:17:58.586Z,8.10
2023-04-27T09:20:25.486Z,8.20
2023-04-27T09:22:53.317Z,8.20
2023-04-27T09:25:33.218Z,8.20
2023-04-27T09:28:01.357Z,8.20
2023-04-27T09:30:29.617Z,8.20
2023-04-27T09:33:01.443Z,8.30
2023-04-27T09:35:31.105Z,8.40
2023-04-27T09:38:05.022Z,8.30
2023-04-27T09:40:31.820Z,8.30
2023-04-27T09:43:00.344Z,8.20
2023-04-27T09:45:27.703Z,8.10
2023-04-27T09:47:54.552Z,8.10
2023-04-27T09:50:21.421Z,8.10
2023-04-27T09:52:48.910Z,8.20
2023-04-27T09:55:24.430Z,8.30
2023-04-27T09:58:16.050Z,8.40
2023-04-27T10:01:00.576Z,8.60
2023-04-27T10:04:02.493Z,8.80
2023-04-27T10:07:00.690Z,8.90
2023-04-27T10:09:39.970Z,8.80
2023-04-27T10:12:42.264Z,8.80
2023-04-27T10:15:16.728Z,8.70
2023-04-27T10:17:53.299Z,8.60
2023-04-27T10:20:37.694Z,8.60
2023-04-27T10:23:04.701Z,8.60
2023-04-27T10:25:44.277Z,8.60
2023-04-27T10:28:16.980Z,8.60
2023-04-27T10:30:49.803Z,8.70
2023-04-27T10:33:26.285Z,8.70
2023-04-27T10:35:59.152Z,8.70
2023-04-27T10:38:33.320Z,8.80
2023-04-27T10:41:10.560Z,8.90
2023-04-27T10:43:40.072Z,9.10
2023-04-27T10:46:12.498Z,9.30
2023-04-27T10:48:44.659Z,9.50
2023-04-27T10:51:16.232Z,9.70
2023-04-27T10:53:44.420Z,9.60
2023-04-27T10:56:11.149Z,9.50
2023-04-27T10:58:49.050Z,9.40
2023-04-27T11:01:26.532Z,9.40
2023-04-27T11:04:00.491Z,9.30
2023-04-27T11:06:28.632Z,9.30
2023-04-27T11:08:55.363Z,9.50
2023-04-27T11:11:22.141Z,9.60
2023-04-27T11:13:50.418Z,9.80
2023-04-27T11:16:18.773Z,9.90
2023-04-27T11:18:48.169Z,9.80
2023-04-27T11:21:19.320Z,9.70
2023-04-27T11:23:48.115Z,9.60
2023-04-27T11:26:26.336Z,9.50
2023-04-27T11:28:59.069Z,9.50
2023-04-27T11:31:27.345Z,9.30
2023-04-27T11:33:57.880Z,9.40
2023-04-27T11:36:26.965Z,9.40
2023-04-27T11:38:58.102Z,9.30
2023-04-27T11:41:36.184Z,9.30
2023-04-27T11:44:10.963Z,9.50
2023-04-27T11:46:39.529Z,9.70
2023-04-27T11:49:08.172Z,9.80
2023-04-27T11:51:35.862Z,9.80
2023-04-27T11:54:08.806Z,10.00
2023-04-27T11:56:42.994Z,10.10
2023-04-27T11:59:20.991Z,10.10
2023-04-27T12:01:47.744Z,10.10
2023-04-27T12:04:14.720Z,10.10
2023-04-27T12:06:41.717Z,10.20
2023-04-27T12:09:08.417Z,10.10
2023-04-27T12:11:35.081Z,10.10
2023-04-27T12:14:02.618Z,10.40
2023-04-27T12:16:29.665Z,10.60
2023-04-27T12:18:56.595Z,10.70
2023-04-27T12:21:23.347Z,10.70
2023-04-27T12:23:50.036Z,10.50
2023-04-27T12:26:17.973Z,10.40
2023-04-27T12:28:44.646Z,10.20
2023-04-27T12:31:15.811Z,10.10
2023-04-27T12:33:44.158Z,10.20
2023-04-27T12:36:11.283Z,10.30
2023-04-27T12:38:38.247Z,10.10
2023-04-27T12:41:04.977Z,10.20
2023-04-27T12:43:31.636Z,10.40
2023-04-27T12:45:58.419Z,10.40
2023-04-27T12:48:25.232Z,10.50
2023-04-27T12:50:52.004Z,10.70
2023-04-27T12:53:19.978Z,10.70
2023-04-27T12:55:47.885Z,10.80
2023-04-27T12:58:15.468Z,10.90
2023-04-27T13:00:42.340Z,11.00
2023-04-27T13:03:09.175Z,11.10
2023-04-27T13:05:36.339Z,11.00
2023-04-27T13:08:03.092Z,11.30
2023-04-27T13:10:29.821Z,11.60
2023-04-27T13:12:56.492Z,11.90
2023-04-27T13:15:23.420Z,12.00
2023-04-27T13:17:50.176Z,12.10
2023-04-27T13:20:19.196Z,12.10
2023-04-27T13:22:45.914Z,12.10
2023-04-27T13:25:12.656Z,12.00
2023-04-27T13:27:39.629Z,11.90
2023-04-27T13:30:07.188Z,11.80
2023-04-27T13:32:34.369Z,12.00
2023-04-27T13:35:02.166Z,12.10
2023-04-27T13:37:28.955Z,12.00
2023-04-27T13:39:55.600Z,11.90
2023-04-27T13:42:22.294Z,12.00
2023-04-27T13:44:49.039Z,11.80
2023-04-27T13:47:16.736Z,11.80
2023-04-27T13:49:44.600Z,11.60
2023-04-27T13:52:11.462Z,11.70
2023-04-27T13:54:39.365Z,12.10
2023-04-27T13:57:06.073Z,12.70
2023-04-27T13:59:33.877Z,12.80
2023-04-27T14:02:01.510Z,12.80
2023-04-27T14:04:32.176Z,13.00
2023-04-27T14:07:01.410Z,12.80
2023-04-27T14:09:28.325Z,12.50
2023-04-27T14:11:57.288Z,12.30
2023-04-27T14:14:24.602Z,12.10
2023-04-27T14:16:52.071Z,12.00
2023-04-27T14:19:19.200Z,11.90
2023-04-27T14:21:46.551Z,11.70
2023-04-27T14:24:13.511Z,11.70
2023-04-27T14:26:40.155Z,11.70
2023-04-27T14:29:06.855Z,11.80
2023-04-27T14:31:33.609Z,11.70
2023-04-27T14:34:00.650Z,11.60
2023-04-27T14:36:27.374Z,11.60
2023-04-27T14:38:55.750Z,11.80
2023-04-27T14:41:22.652Z,11.80
2023-04-27T14:43:49.451Z,11.80
2023-04-27T14:46:21.204Z,11.90
2023-04-27T14:48:48.686Z,11.90
2023-04-27T14:51:16.313Z,11.80
2023-04-27T14:53:44.339Z,11.70
2023-04-27T14:56:11.792Z,11.70
2023-04-27T14:58:39.527Z,11.80
2023-04-27T15:01:07.921Z,12.00
2023-04-27T15:03:34.889Z,12.00
2023-04-27T15:06:05.581Z,12.00
2023-04-27T15:08:36.361Z,11.80
2023-04-27T15:11:05.121Z,11.50
2023-04-27T15:13:32.012Z,11.30
2023-04-27T15:15:59.843Z,11.30
2023-04-27T15:18:26.793Z,11.60
2023-04-27T15:20:58.278Z,11.60
2023-04-27T15:23:26.107Z,11.50
2023-04-27T15:25:57.342Z,11.40
2023-04-27T15:28:24.578Z,11.30
2023-04-27T15:30:51.730Z,11.20
2023-04-27T15:33:20.582Z,11.10
2023-04-27T15:35:47.484Z,11.10
2023-04-27T15:38:15.698Z,11.10
2023-04-27T15:40:42.464Z,11.20
2023-04-27T15:43:10.292Z,11.10
2023-04-27T15:45:38.505Z,11.10
2023-04-27T15:48:05.318Z,11.10
2023-04-27T15:50:32.051Z,11.00
2023-04-27T15:52:58.782Z,11.00
2023-04-27T15:55:25.546Z,10.90
2023-04-27T15:57:53.022Z,10.80
2023-04-27T16:00:20.314Z,10.70
2023-04-27T16:02:47.105Z,10.70
2023-04-27T16:05:14.828Z,10.90
2023-04-27T16:07:43.715Z,11.20
2023-04-27T16:10:11.010Z,11.50
2023-04-27T16:12:38.106Z,11.90
2023-04-27T16:15:05.202Z,12.10
2023-04-27T16:17:34.664Z,12.20
2023-04-27T16:20:01.923Z,12.20
2023-04-27T16:22:28.662Z,12.10
2023-04-27T16:24:55.402Z,12.20
2023-04-27T16:27:22.258Z,12.30
2023-04-27T16:29:51.523Z,12.50
2023-04-27T16:32:18.366Z,12.70
2023-04-27T16:34:46.742Z,13.00
2023-04-27T16:37:13.474Z,13.00
2023-04-27T16:39:40.251Z,12.80
2023-04-27T16:42:07.026Z,12.90
2023-04-27T16:44:33.728Z,13.00
2023-04-27T16:47:00.390Z,13.20
2023-04-27T16:49:27.201Z,13.30
2023-04-27T16:51:54.025Z,13.40
2023-04-27T16:54:20.861Z,13.30
2023-04-27T16:56:50.292Z,13.30
2023-04-27T16:59:17.203Z,13.30
2023-04-27T17:01:44.334Z,13.10
2023-04-27T17:04:12.122Z,13.10
2023-04-27T17:06:40.127Z,13.10
2023-04-27T17:09:07.035Z,13.00
2023-04-27T17:11:44.929Z,12.80
2023-04-27T17:14:12.027Z,12.60
2023-04-27T17:16:39.978Z,12.60
2023-04-27T17:19:06.689Z,12.40
2023-04-27T17:21:33.403Z,12.30
2023-04-27T17:24:00.103Z,12.20
2023-04-27T17:26:26.857Z,12.00
2023-04-27T17:28:53.542Z,12.00
2023-04-27T17:31:20.235Z,11.80
2023-04-27T17:33:49.343Z,11.80
2023-04-27T17:36:16.038Z,11.70
2023-04-27T17:38:44.302Z,11.60
2023-04-27T17:41:11.184Z,11.50
2023-04-27T17:43:39.209Z,11.40
2023-04-27T17:46:24.694Z,11.30
2023-04-27T17:48:51.595Z,11.20
2023-04-27T17:51:18.342Z,11.20
2023-04-27T17:53:47.576Z,11.20
2023-04-27T17:56:15.719Z,11.20
2023-04-27T17:58:42.378Z,11.10
2023-04-27T18:01:09.091Z,11.00
2023-04-27T18:03:36.093Z,10.90
2023-04-27T18:06:02.831Z,10.80
2023-04-27T18:08:29.685Z,10.70
2023-04-27T18:10:56.445Z,10.70
2023-04-27T18:13:23.120Z,10.50
2023-04-27T18:15:49.819Z,10.40
2023-04-27T18:18:17.875Z,10.30
2023-04-27T18:20:44.622Z,10.20
2023-04-27T18:23:11.490Z,10.20
2023-04-27T18:25:39.733Z,10.10
2023-04-27T18:28:07.931Z,10.10
2023-04-27T18:30:35.832Z,10.00
2023-04-27T18:33:06.430Z,10.00
2023-04-27T18:35:34.568Z,9.90
2023-04-27T18:38:01.347Z,9.90
2023-04-27T18:40:28.032Z,9.90
2023-04-27T18:42:54.770Z,9.80
2023-04-27T18:45:21.566Z,9.80
2023-04-27T18:47:48.391Z,9.80
2023-04-27T18:50:15.154Z,9.80
2023-04-27T18:52:42.028Z,9.80
2023-04-27T18:55:09.357Z,9.60
2023-04-27T18:57:36.176Z,9.60
2023-04-27T19:00:04.290Z,9.60
2023-04-27T19:02:31.516Z,9.60
2023-04-27T19:05:11.319Z,9.50
2023-04-27T19:07:40.726Z,9.50
2023-04-27T19:10:08.291Z,9.50
2023-04-27T19:12:35.049Z,9.40
2023-04-27T19:15:02.041Z,9.40
2023-04-27T19:17:28.984Z,9.40
2023-04-27T19:19:55.782Z,9.30
2023-04-27T19:22:22.527Z,9.30
2023-04-27T19:24:49.382Z,9.20
2023-04-27T19:27:17.476Z,9.20
2023-04-27T19:29:55.634Z,9.10
2023-04-27T19:32:23.328Z,9.10
2023-04-27T19:34:51.211Z,9.00
2023-04-27T19:37:19.654Z,9.00
2023-04-27T19:39:46.523Z,9.00
2023-04-27T19:42:14.825Z,8.90
2023-04-27T19:44:41.773Z,8.90
2023-04-27T19:47:09.625Z,8.90
2023-04-27T19:49:37.223Z,8.90
2023-04-27T19:52:05.371Z,8.80
2023-04-27T19:54:32.113Z,8.80
2023-04-27T19:56:59.970Z,8.80
2023-04-27T19:59:29.039Z,8.70
2023-04-27T20:01:55.749Z,8.80
2023-04-27T20:04:23.344Z,8.70
2023-04-27T20:06:50.539Z,8.70
2023-04-27T20:09:17.225Z,8.70
2023-04-27T20:11:43.895Z,8.60
2023-04-27T20:14:10.678Z,8.60
2023-04-27T20:16:37.406Z,8.50
2023-04-27T20:19:04.144Z,8.60
2023-04-27T20:21:30.880Z,8.50
2023-04-27T20:23:57.521Z,8.50
2023-04-27T20:26:25.554Z,8.50
2023-04-27T20:28:54.632Z,8.50
2023-04-27T20:31:22.968Z,8.40
2023-04-27T20:33:54.952Z,8.40
2023-04-27T20:36:22.903Z,8.40
2023-04-27T20:38:50.905Z,8.40
2023-04-27T20:41:19.222Z,8.30
2023-04-27T20:43:45.987Z,8.30
2023-04-27T20:46:12.919Z,8.20
2023-04-27T20:48:39.922Z,8.20
2023-04-27T20:51:06.666Z,8.20
2023-04-27T20:53:33.360Z,8.20
2023-04-27T20:56:00.136Z,8.20
2023-04-27T20:58:26.910Z,8.20
2023-04-27T21:00:54.045Z,8.20
2023-04-27T21:03:20.937Z,8.10
2023-04-27T21:05:49.261Z,8.10
2023-04-27T21:08:16.446Z,8.10
2023-04-27T21:10:44.950Z,8.10
2023-04-27T21:13:11.750Z,8.00
2023-04-27T21:15:39.583Z,8.00
2023-04-27T21:18:07.790Z,8.00
2023-04-27T21:20:37.618Z,8.00
2023-04-27T21:23:05.781Z,8.00
2023-04-27T21:25:34.783Z,7.90
2023-04-27T21:28:05.225Z,7.90
2023-04-27T21:30:31.895Z,7.90
2023-04-27T21:32:58.670Z,7.90
2023-04-27T21:35:25.531Z,7.90
2023-04-27T21:37:52.209Z,7.80
2023-04-27T21:40:19.169Z,7.80
2023-04-27T21:42:45.899Z,7.80
2023-04-27T21:45:12.642Z,7.80
2023-04-27T21:47:39.334Z,7.80
2023-04-27T21:50:06.925Z,7.80
2023-04-27T21:52:33.639Z,7.70
2023-04-27T21:55:00.388Z,7.70
2023-04-27T21:57:27.222Z,7.70
2023-04-27T21:59:53.941Z,7.70
2023-04-27T22:02:20.685Z,7.60
2023-04-27T22:04:48.452Z,7.60
2023-04-27T22:07:16.260Z,7.60
2023-04-27T22:09:43.031Z,7.60
2023-04-27T22:12:19.155Z,7.50
2023-04-27T22:14:48.299Z,7.50
2023-04-27T22:17:15.029Z,7.50
2023-04-27T22:19:50.837Z,7.50
2023-04-27T22:22:21.286Z,7.40
2023-04-27T22:24:49.150Z,7.40
2023-04-27T22:27:30.007Z,7.40
2023-04-27T22:30:04.046Z,7.30
2023-04-27T22:32:31.580Z,7.30
2023-04-27T22:35:02.079Z,7.20
2023-04-27T22:37:30.672Z,7.20
2023-04-27T22:39:58.294Z,7.20
2023-04-27T22:42:27.104Z,7.20
2023-04-27T22:44:53.983Z,7.20
2023-04-27T22:47:24.693Z,7.10
2023-04-27T22:49:55.008Z,7.10
2023-04-27T22:52:25.245Z,7.10
2023-04-27T22:54:51.934Z,7.10
2023-04-27T22:57:18.647Z,7.10
2023-04-27T22:59:45.358Z,7.00
2023-04-27T23:02:12.095Z,7.00
2023-04-27T23:04:38.762Z,7.00
2023-04-27T23:07:05.498Z,7.00
2023-04-27T23:09:32.192Z,7.00
2023-04-27T23:11:58.904Z,6.90
2023-04-27T23:14:25.569Z,6.90
2023-04-27T23:16:52.269Z,6.90
2023-04-27T23:19:18.951Z,6.80
2023-04-27T23:21:46.656Z,6.80
2023-04-27T23:24:15.054Z,6.80
2023-04-27T23:26:43.234Z,6.80
2023-04-27T23:29:13.248Z,6.80
2023-04-27T23:31:40.506Z,6.80
2023-04-27T23:34:10.995Z,6.70
2023-04-27T23:36:39.697Z,6.70
2023-04-27T23:39:06.389Z,6.70
2023-04-27T23:41:33.103Z,6.60
2023-04-27T23:43:59.841Z,6.60
2023-04-27T23:46:26.705Z,6.50
2023-04-27T23:48:53.494Z,6.50
2023-04-27T23:51:20.390Z,6.60
2023-04-27T23:53:47.172Z,6.50
2023-04-27T23:56:18.132Z,6.50
2023-04-27T23:58:45.240Z,6.50
